Denver, Colorado
Traffic Map
Current Weather Conditions
Denver, Colorado
Few Clouds
Few Clouds
47°
Feels Like: 47°
Wind Chill: 47° Ceiling: Unl
Heat Index: 47° Visibility: 10mi
Dew Point: Wind: 0mph
Humidity: 18% Direction: ° ()
Pressure: 29.95in Gusts: 0mph
Raw Report DataKBKF 041758Z 00000KT 10SM FEW120 FEW200 08/M15 A2995 RMK AO2A SLP147 T00821153 10082 21082 58014
Traffic Incident Summary
Active as of:
Severity:
Category:
InformationThere was an issue retrieving the traffic information for this location. Please try a different location or try again shortly.
Advertisements
Track Severe Weather on mobile